Time;durP1;ratioP1;P1;durP2;ratioP2;P2;SDS_P1;SDS_P2;PMS_P1;PMS_P2;Temp;Humidity;BMP_temperature;BMP_pressure;BME280_temperature;BME280_humidity;BME280_pressure;Samples;Min_cycle;Max_cycle;Signal;HPM_P1;HPM_P2
2021/07/18 00:00:42;;;;;;;7.10;6.32;;;;;;;;;;3521702;39;104771;-38
2021/07/18 00:03:12;;;;;;;7.68;6.13;;;;;;;;;;3521310;39;105934;-39
2021/07/18 00:05:41;;;;;;;9.40;6.30;;;;;;;;;;3521195;39;106253;-39
2021/07/18 00:08:09;;;;;;;7.07;5.97;;;;;;;;;;3521136;39;104799;-40
2021/07/18 00:10:38;;;;;;;6.50;5.65;;;;;;;;;;3521094;39;104837;-39
2021/07/18 00:13:09;;;;;;;6.90;5.95;;;;;;;;;;3521048;39;105809;-33
2021/07/18 00:15:38;;;;;;;6.55;5.88;;;;;;;;;;3521058;39;106077;-38
2021/07/18 00:18:08;;;;;;;8.32;6.45;;;;;;;;;;3521289;39;104874;-40
2021/07/18 00:20:38;;;;;;;6.95;5.60;;;;;;;;;;3521634;39;104942;-40
2021/07/18 00:23:08;;;;;;;6.77;5.97;;;;;;;;;;3521410;39;105957;-39
2021/07/18 00:25:37;;;;;;;7.80;5.87;;;;;;;;;;3521795;39;106098;-38
2021/07/18 00:28:06;;;;;;;6.47;5.75;;;;;;;;;;3521579;39;104985;-40
2021/07/18 00:30:36;;;;;;;7.40;6.10;;;;;;;;;;3521712;39;104776;-37
2021/07/18 00:33:06;;;;;;;6.77;6.03;;;;;;;;;;3521253;39;105787;-37
2021/07/18 00:35:38;;;;;;;7.85;6.10;;;;;;;;;;3520926;39;105701;-38
2021/07/18 00:38:08;;;;;;;7.75;5.78;;;;;;;;;;3520807;39;105205;-37
2021/07/18 00:40:37;;;;;;;6.78;5.82;;;;;;;;;;3521000;39;104874;-38
2021/07/18 00:43:05;;;;;;;6.45;5.75;;;;;;;;;;3520880;39;105953;-36
2021/07/18 00:45:34;;;;;;;6.40;5.50;;;;;;;;;;3520773;39;107035;-36
2021/07/18 00:48:05;;;;;;;6.80;5.80;;;;;;;;;;3520919;39;104939;-33
2021/07/18 00:50:34;;;;;;;6.60;6.00;;;;;;;;;;3520767;39;105038;-38
2021/07/18 00:53:04;;;;;;;7.35;5.60;;;;;;;;;;3520572;39;106792;-36
2021/07/18 00:55:33;;;;;;;7.68;5.20;;;;;;;;;;3520855;39;105869;-38
2021/07/18 00:58:03;;;;;;;6.63;5.93;;;;;;;;;;3520941;39;105289;-39
2021/07/18 01:00:32;;;;;;;6.23;5.63;;;;;;;;;;3520362;39;105309;-36
2021/07/18 01:03:01;;;;;;;7.00;6.00;;;;;;;;;;3520703;40;106171;-36
2021/07/18 01:05:30;;;;;;;6.07;5.43;;;;;;;;;;3521255;39;106102;-37
2021/07/18 01:08:00;;;;;;;6.30;5.70;;;;;;;;;;3521169;39;105116;-37
2021/07/18 01:10:30;;;;;;;7.57;6.13;;;;;;;;;;3521036;39;105048;-36
2021/07/18 01:12:59;;;;;;;6.60;5.40;;;;;;;;;;3521002;39;106007;-36
2021/07/18 01:15:38;;;;;;;6.00;5.38;;;;;;;;;;3521377;39;108864;-37
2021/07/18 01:18:11;;;;;;;7.78;5.80;;;;;;;;;;3521499;39;104859;-37
2021/07/18 01:20:42;;;;;;;6.63;5.95;;;;;;;;;;3521524;39;104780;-37
2021/07/18 01:23:11;;;;;;;6.20;5.53;;;;;;;;;;3521047;39;106792;-37
2021/07/18 01:25:41;;;;;;;6.83;5.73;;;;;;;;;;3521344;39;106167;-40
2021/07/18 01:28:13;;;;;;;7.00;5.75;;;;;;;;;;3521401;39;104824;-37
2021/07/18 01:30:43;;;;;;;6.32;5.70;;;;;;;;;;3521333;39;104899;-39
2021/07/18 01:33:13;;;;;;;6.70;5.60;;;;;;;;;;3530512;39;105867;-39
2021/07/18 01:35:42;;;;;;;6.23;5.63;;;;;;;;;;3531406;39;106246;-39
2021/07/18 01:38:13;;;;;;;6.32;5.72;;;;;;;;;;3530759;39;104861;-39
2021/07/18 01:40:43;;;;;;;6.10;5.50;;;;;;;;;;3531222;39;104885;-38
2021/07/18 01:43:13;;;;;;;6.45;5.85;;;;;;;;;;3531092;39;106814;-38
2021/07/18 01:45:42;;;;;;;7.03;6.03;;;;;;;;;;3531261;39;106182;-37
2021/07/18 01:48:10;;;;;;;6.17;5.43;;;;;;;;;;3530821;39;104847;-36
2021/07/18 01:50:39;;;;;;;7.32;5.63;;;;;;;;;;3530697;39;104923;-36
2021/07/18 01:53:08;;;;;;;6.05;5.45;;;;;;;;;;3530401;39;105752;-37
2021/07/18 01:55:38;;;;;;;6.27;5.67;;;;;;;;;;3530551;39;106216;-36
2021/07/18 01:58:08;;;;;;;6.18;5.57;;;;;;;;;;3530571;39;104846;-37
2021/07/18 02:00:37;;;;;;;6.87;5.60;;;;;;;;;;3530867;39;104905;-37
2021/07/18 02:03:06;;;;;;;6.57;5.68;;;;;;;;;;3530454;39;105722;-37
2021/07/18 02:05:36;;;;;;;5.90;5.30;;;;;;;;;;3530533;39;106284;-37
2021/07/18 02:08:05;;;;;;;6.20;5.22;;;;;;;;;;3530313;39;104906;-37
2021/07/18 02:10:35;;;;;;;5.80;5.20;;;;;;;;;;3530656;39;104856;-36
2021/07/18 02:13:05;;;;;;;5.93;5.30;;;;;;;;;;3530583;39;105820;-37
2021/07/18 02:15:35;;;;;;;5.88;5.25;;;;;;;;;;3530821;39;106096;-39
2021/07/18 02:18:04;;;;;;;6.22;5.63;;;;;;;;;;3530882;39;106210;-39
2021/07/18 02:20:34;;;;;;;7.00;5.75;;;;;;;;;;3530756;39;105654;-39
2021/07/18 02:23:04;;;;;;;6.43;5.35;;;;;;;;;;3530532;39;106834;-33
2021/07/18 02:25:34;;;;;;;5.93;5.32;;;;;;;;;;3530181;39;104854;-35
2021/07/18 02:28:04;;;;;;;6.03;5.30;;;;;;;;;;3530487;39;105121;-35
2021/07/18 02:30:34;;;;;;;5.90;5.15;;;;;;;;;;3530385;39;104757;-35
2021/07/18 02:33:03;;;;;;;6.35;5.38;;;;;;;;;;3520674;39;106852;-37
2021/07/18 02:35:33;;;;;;;6.32;4.85;;;;;;;;;;3520307;39;106103;-35
2021/07/18 02:38:03;;;;;;;5.93;5.33;;;;;;;;;;3520025;40;105080;-34
2021/07/18 02:40:32;;;;;;;6.10;5.50;;;;;;;;;;3520528;39;105104;-36
2021/07/18 02:43:02;;;;;;;6.13;5.45;;;;;;;;;;3520803;39;105951;-34
2021/07/18 02:45:32;;;;;;;6.87;5.50;;;;;;;;;;3520971;40;107089;-37
2021/07/18 02:48:02;;;;;;;6.17;5.57;;;;;;;;;;3520828;40;104807;-38
2021/07/18 02:50:31;;;;;;;6.07;5.47;;;;;;;;;;3520810;40;104836;-35
2021/07/18 02:53:01;;;;;;;6.15;5.50;;;;;;;;;;3520659;40;106338;-37
2021/07/18 02:55:30;;;;;;;6.60;5.90;;;;;;;;;;3520702;39;106262;-37
2021/07/18 02:58:00;;;;;;;6.05;5.25;;;;;;;;;;3520447;39;104758;-37
2021/07/18 03:00:29;;;;;;;6.38;5.78;;;;;;;;;;3520231;39;105283;-35
2021/07/18 03:02:59;;;;;;;5.95;5.22;;;;;;;;;;3519996;40;105871;-35
2021/07/18 03:05:29;;;;;;;6.50;5.55;;;;;;;;;;3520082;40;106094;-36
2021/07/18 03:07:59;;;;;;;5.75;5.22;;;;;;;;;;3520079;40;104780;-34
2021/07/18 03:10:28;;;;;;;5.60;5.00;;;;;;;;;;3520206;40;104874;-38
2021/07/18 03:12:58;;;;;;;5.95;5.35;;;;;;;;;;3519820;40;106170;-38
2021/07/18 03:15:27;;;;;;;7.45;6.18;;;;;;;;;;3519888;40;106029;-39
2021/07/18 03:17:57;;;;;;;6.68;5.97;;;;;;;;;;3519881;39;104928;-35
2021/07/18 03:20:26;;;;;;;6.13;5.53;;;;;;;;;;3520158;40;104780;-39
2021/07/18 03:22:55;;;;;;;5.75;5.13;;;;;;;;;;3520323;39;106127;-39
2021/07/18 03:25:25;;;;;;;5.90;5.30;;;;;;;;;;3521803;39;106079;-38
2021/07/18 03:27:52;;;;;;;6.65;5.22;;;;;;;;;;3522129;39;104938;-38
2021/07/18 03:30:22;;;;;;;5.78;5.13;;;;;;;;;;3521840;39;105449;-36
2021/07/18 03:32:52;;;;;;;6.17;5.27;;;;;;;;;;3529734;39;105080;-39
2021/07/18 03:35:21;;;;;;;6.03;5.40;;;;;;;;;;3531132;39;106343;-39
2021/07/18 03:37:50;;;;;;;5.95;5.30;;;;;;;;;;3530880;39;104996;-39
2021/07/18 03:40:21;;;;;;;6.68;5.93;;;;;;;;;;3531303;39;104826;-38
2021/07/18 03:42:50;;;;;;;7.78;4.97;;;;;;;;;;3531076;39;105814;-33
2021/07/18 03:45:20;;;;;;;5.97;5.38;;;;;;;;;;3530826;39;106836;-38
2021/07/18 03:47:50;;;;;;;5.80;5.30;;;;;;;;;;3531105;39;104783;-38
2021/07/18 03:50:19;;;;;;;6.22;5.53;;;;;;;;;;3531112;39;104884;-38
2021/07/18 03:52:50;;;;;;;6.53;5.68;;;;;;;;;;3531323;39;105856;-39
2021/07/18 03:55:19;;;;;;;5.68;5.15;;;;;;;;;;3531586;39;107401;-37
2021/07/18 03:57:48;;;;;;;6.57;5.28;;;;;;;;;;3531717;39;104742;-38
2021/07/18 04:00:18;;;;;;;5.97;5.30;;;;;;;;;;3531972;39;104973;-35
2021/07/18 04:02:48;;;;;;;6.57;5.57;;;;;;;;;;3531523;39;107190;-38
2021/07/18 04:05:17;;;;;;;6.13;5.53;;;;;;;;;;3531583;39;106078;-38
2021/07/18 04:07:47;;;;;;;5.95;5.35;;;;;;;;;;3531454;39;105194;-39
2021/07/18 04:10:16;;;;;;;7.18;5.25;;;;;;;;;;3531188;39;104895;-38
2021/07/18 04:12:49;;;;;;;6.63;5.70;;;;;;;;;;3530875;39;105866;-39
2021/07/18 04:15:18;;;;;;;6.80;5.90;;;;;;;;;;3531154;39;105828;-39
2021/07/18 04:17:48;;;;;;;6.22;5.35;;;;;;;;;;3531056;39;104952;-37
2021/07/18 04:20:17;;;;;;;6.50;5.30;;;;;;;;;;3531030;39;104794;-37
2021/07/18 04:22:47;;;;;;;6.13;5.53;;;;;;;;;;3530892;39;105821;-38
2021/07/18 04:25:17;;;;;;;5.85;5.18;;;;;;;;;;3530815;39;106724;-37
2021/07/18 04:27:46;;;;;;;6.78;5.63;;;;;;;;;;3530948;39;104887;-38
2021/07/18 04:30:16;;;;;;;5.75;5.15;;;;;;;;;;3530988;39;104780;-36
2021/07/18 04:32:45;;;;;;;5.63;5.05;;;;;;;;;;3522411;39;105830;-38
2021/07/18 04:35:15;;;;;;;6.60;6.00;;;;;;;;;;3520794;39;107450;-35
2021/07/18 04:37:44;;;;;;;6.22;5.55;;;;;;;;;;3520730;39;105178;-33
2021/07/18 04:40:14;;;;;;;6.10;5.50;;;;;;;;;;3520996;39;105417;-37
2021/07/18 04:42:44;;;;;;;6.07;5.43;;;;;;;;;;3520924;39;106082;-37
2021/07/18 04:45:13;;;;;;;5.82;5.22;;;;;;;;;;3520876;40;107081;-36
2021/07/18 04:47:55;;;;;;;5.63;5.13;;;;;;;;;;3520966;39;104882;-37
2021/07/18 04:50:26;;;;;;;5.88;5.38;;;;;;;;;;3521004;39;104864;-37
2021/07/18 04:52:56;;;;;;;6.70;5.47;;;;;;;;;;3520788;39;105951;-36
2021/07/18 04:55:26;;;;;;;6.25;5.10;;;;;;;;;;3521263;39;106172;-35
2021/07/18 04:57:56;;;;;;;6.72;5.15;;;;;;;;;;3521546;39;104884;-35
2021/07/18 05:00:24;;;;;;;5.80;5.20;;;;;;;;;;3521455;39;105102;-37
2021/07/18 05:02:54;;;;;;;6.03;5.20;;;;;;;;;;3521351;39;105891;-36
2021/07/18 05:05:24;;;;;;;6.18;5.30;;;;;;;;;;3521780;40;106024;-35
2021/07/18 05:07:56;;;;;;;5.40;4.90;;;;;;;;;;3521421;39;104991;-36
2021/07/18 05:10:27;;;;;;;6.75;5.50;;;;;;;;;;3521601;39;104781;-38
2021/07/18 05:12:58;;;;;;;6.32;5.72;;;;;;;;;;3521216;39;105894;-39
2021/07/18 05:15:28;;;;;;;6.68;5.40;;;;;;;;;;3520901;39;107203;-37
2021/07/18 05:17:58;;;;;;;6.30;5.67;;;;;;;;;;3520880;39;104907;-35
2021/07/18 05:20:28;;;;;;;;;;;;;;;;;;3521197;39;105148;-36
2021/07/18 05:22:57;;;;;;;6.63;4.95;;;;;;;;;;3519768;40;134878;-36
2021/07/18 05:25:26;;;;;;;6.25;5.10;;;;;;;;;;3520955;39;106090;-37
2021/07/18 05:27:56;;;;;;;6.35;5.72;;;;;;;;;;3521377;39;104911;-35
2021/07/18 05:30:27;;;;;;;5.78;5.18;;;;;;;;;;3521259;39;104908;-36
2021/07/18 05:32:57;;;;;;;6.00;5.28;;;;;;;;;;3529451;39;106892;-36
2021/07/18 05:35:26;;;;;;;5.50;4.82;;;;;;;;;;3530845;39;107028;-38
2021/07/18 05:37:56;;;;;;;5.97;5.18;;;;;;;;;;3530698;39;104850;-40
2021/07/18 05:40:25;;;;;;;6.78;5.50;;;;;;;;;;3531283;39;104781;-38
2021/07/18 05:42:55;;;;;;;5.65;4.97;;;;;;;;;;3530571;39;106126;-32
2021/07/18 05:45:24;;;;;;;5.63;5.00;;;;;;;;;;3530370;39;106045;-30
2021/07/18 05:47:54;;;;;;;5.30;4.80;;;;;;;;;;3530383;39;104942;-31
2021/07/18 05:50:23;;;;;;;6.07;5.47;;;;;;;;;;3530639;39;105227;-32
2021/07/18 05:52:53;;;;;;;5.80;5.20;;;;;;;;;;3530368;39;105564;-32
2021/07/18 05:55:23;;;;;;;7.05;5.10;;;;;;;;;;3530990;39;106145;-30
2021/07/18 05:57:53;;;;;;;6.80;5.20;;;;;;;;;;3531102;39;104918;-32
2021/07/18 06:00:23;;;;;;;5.93;5.07;;;;;;;;;;3531094;39;104976;-31
2021/07/18 06:02:52;;;;;;;5.25;4.75;;;;;;;;;;3530952;39;106917;-32
2021/07/18 06:05:22;;;;;;;5.70;5.10;;;;;;;;;;3530586;39;106115;-31
2021/07/18 06:07:51;;;;;;;6.45;5.07;;;;;;;;;;3530575;39;104935;-31
2021/07/18 06:10:21;;;;;;;6.13;5.38;;;;;;;;;;3530447;39;105006;-30
2021/07/18 06:12:50;;;;;;;6.20;4.93;;;;;;;;;;3530309;39;105805;-31
2021/07/18 06:15:19;;;;;;;5.07;4.65;;;;;;;;;;3530313;39;107737;-34
2021/07/18 06:17:49;;;;;;;5.32;4.75;;;;;;;;;;3530420;39;104737;-31
2021/07/18 06:20:19;;;;;;;5.28;4.78;;;;;;;;;;3530444;39;104912;-33
2021/07/18 06:22:51;;;;;;;5.55;4.75;;;;;;;;;;3530265;39;106823;-31
2021/07/18 06:25:21;;;;;;;5.03;4.53;;;;;;;;;;3530868;39;106127;-31
2021/07/18 06:27:51;;;;;;;5.00;4.47;;;;;;;;;;3531120;39;104787;-32
2021/07/18 06:30:20;;;;;;;6.50;4.57;;;;;;;;;;3530799;39;104971;-33
2021/07/18 06:32:48;;;;;;;4.80;4.40;;;;;;;;;;3522826;39;107069;-31
2021/07/18 06:35:17;;;;;;;4.97;4.30;;;;;;;;;;3520675;40;106144;-30
2021/07/18 06:37:45;;;;;;;12.82;5.13;;;;;;;;;;3520959;40;106737;-75
2021/07/18 06:40:13;;;;;;;5.85;4.57;;;;;;;;;;3523386;39;104987;-74
2021/07/18 06:42:41;;;;;;;8.18;5.25;;;;;;;;;;3530783;39;105886;-76
2021/07/18 06:45:10;;;;;;;8.98;5.50;;;;;;;;;;3530555;39;106056;-79
2021/07/18 06:47:38;;;;;;;7.22;5.07;;;;;;;;;;3531147;39;104950;-76
2021/07/18 06:50:06;;;;;;;6.72;5.20;;;;;;;;;;3531036;39;104960;-77
2021/07/18 06:52:34;;;;;;;8.63;5.18;;;;;;;;;;3530693;39;106644;-86
2021/07/18 06:55:04;;;;;;;8.07;5.30;;;;;;;;;;3531589;39;108735;-77
2021/07/18 06:57:34;;;;;;;6.25;5.32;;;;;;;;;;3530544;39;104769;-78
2021/07/18 07:00:06;;;;;;;8.13;5.10;;;;;;;;;;3531375;39;105181;-75
2021/07/18 07:02:36;;;;;;;5.57;4.65;;;;;;;;;;3531375;39;106805;-77
2021/07/18 07:05:06;;;;;;;8.20;5.57;;;;;;;;;;3531239;39;106082;-76
2021/07/18 07:07:36;;;;;;;6.90;4.82;;;;;;;;;;3531362;39;104944;-74
2021/07/18 07:10:06;;;;;;;5.30;4.70;;;;;;;;;;3531904;39;104978;-69
2021/07/18 07:12:35;;;;;;;8.35;5.38;;;;;;;;;;3530916;39;107321;-70
2021/07/18 07:15:05;;;;;;;40.28;10.68;;;;;;;;;;3531648;39;105933;-69
2021/07/18 07:17:35;;;;;;;29.02;10.05;;;;;;;;;;3531988;39;104916;-70
2021/07/18 07:20:08;;;;;;;25.93;10.00;;;;;;;;;;3531778;39;104791;-69
2021/07/18 07:22:38;;;;;;;39.80;12.45;;;;;;;;;;3531551;39;105889;-71
2021/07/18 07:25:08;;;;;;;41.05;12.48;;;;;;;;;;3531292;39;107082;-71
2021/07/18 07:27:38;;;;;;;43.53;13.52;;;;;;;;;;3531304;39;105185;-71
2021/07/18 07:30:12;;;;;;;31.40;12.18;;;;;;;;;;3531346;39;104831;-69
2021/07/18 07:32:41;;;;;;;46.83;12.68;;;;;;;;;;3523780;39;105969;-69
2021/07/18 07:35:15;;;;;;;34.47;11.77;;;;;;;;;;3521155;39;106234;-72
2021/07/18 07:37:45;;;;;;;35.50;11.23;;;;;;;;;;3521176;39;105058;-66
2021/07/18 07:40:19;;;;;;;30.67;11.35;;;;;;;;;;3521244;39;104950;-66
2021/07/18 07:42:47;;;;;;;29.65;11.00;;;;;;;;;;3525834;39;106838;-74
2021/07/18 07:45:17;;;;;;;28.85;11.02;;;;;;;;;;3531574;39;106388;-72
2021/07/18 07:47:47;;;;;;;27.48;10.25;;;;;;;;;;3531213;39;104884;-72
2021/07/18 07:50:16;;;;;;;31.30;10.93;;;;;;;;;;3531221;39;104789;-72
2021/07/18 07:52:47;;;;;;;25.48;9.93;;;;;;;;;;3531104;39;106034;-73
2021/07/18 07:55:17;;;;;;;28.70;10.43;;;;;;;;;;3531823;39;106808;-80
2021/07/18 07:57:46;;;;;;;24.27;10.13;;;;;;;;;;3531535;39;105145;-68
2021/07/18 08:00:16;;;;;;;23.52;8.93;;;;;;;;;;3531062;39;104805;-73
2021/07/18 08:02:49;;;;;;;22.25;9.35;;;;;;;;;;3531785;39;105974;-72
2021/07/18 08:05:20;;;;;;;21.52;8.98;;;;;;;;;;3531620;39;107315;-70
2021/07/18 08:07:50;;;;;;;20.40;8.43;;;;;;;;;;3533980;39;104594;-70
2021/07/18 08:10:21;;;;;;;20.83;8.73;;;;;;;;;;3533575;39;105216;-75
2021/07/18 08:12:50;;;;;;;19.33;8.85;;;;;;;;;;3533256;39;106851;-73
2021/07/18 08:15:21;;;;;;;17.35;8.27;;;;;;;;;;3531230;39;106943;-75
2021/07/18 08:17:53;;;;;;;19.20;8.07;;;;;;;;;;3531359;39;104769;-80
2021/07/18 21:03:38;;;;;;;8.23;6.88;;;;;;;;;;3538101;39;105505;-63
2021/07/18 21:06:06;;;;;;;7.50;6.70;;;;;;;;;;3537082;39;105257;-61
2021/07/18 21:08:33;;;;;;;7.45;6.50;;;;;;;;;;3535897;39;106569;-64
2021/07/18 21:10:59;;;;;;;6.75;6.05;;;;;;;;;;3526928;39;107535;-56
2021/07/18 21:13:28;;;;;;;7.82;6.60;;;;;;;;;;3527025;39;105351;-62
2021/07/18 21:15:57;;;;;;;8.05;7.00;;;;;;;;;;3527410;39;105672;-61
2021/07/18 21:18:24;;;;;;;7.65;6.47;;;;;;;;;;3529085;39;106933;-65
2021/07/18 21:20:51;;;;;;;6.82;6.13;;;;;;;;;;3531206;39;107675;-63
2021/07/18 21:23:21;;;;;;;8.33;6.73;;;;;;;;;;3530361;39;106643;-61
2021/07/18 21:25:48;;;;;;;7.38;6.45;;;;;;;;;;3530957;39;105491;-65
2021/07/18 21:28:15;;;;;;;7.93;6.53;;;;;;;;;;3533499;39;105832;-69
2021/07/18 21:30:42;;;;;;;7.38;6.57;;;;;;;;;;3531959;39;107478;-63
2021/07/18 21:33:09;;;;;;;7.20;6.50;;;;;;;;;;3531276;39;105524;-69
2021/07/18 21:35:36;;;;;;;8.05;6.50;;;;;;;;;;3531175;39;105527;-63
2021/07/18 21:38:06;;;;;;;7.30;6.22;;;;;;;;;;3531820;39;106802;-69
2021/07/18 21:40:34;;;;;;;7.82;6.32;;;;;;;;;;3532016;39;107532;-64
2021/07/18 21:43:01;;;;;;;6.75;6.05;;;;;;;;;;3530676;39;105355;-60
2021/07/18 21:45:28;;;;;;;7.07;6.22;;;;;;;;;;3532152;39;105332;-59
2021/07/18 22:09:29;;;;;;;7.72;6.53;;;;;;;;;;3556589;39;105715;-62
2021/07/18 22:11:56;;;;;;;7.43;6.00;;;;;;;;;;3555566;39;105841;-61
2021/07/18 22:14:23;;;;;;;7.60;6.15;;;;;;;;;;3555220;39;106754;-61
2021/07/18 22:16:50;;;;;;;7.68;6.32;;;;;;;;;;3555567;39;107859;-62
2021/07/18 22:19:17;;;;;;;7.28;5.85;;;;;;;;;;3556208;39;105924;-61
2021/07/18 22:21:44;;;;;;;7.80;6.13;;;;;;;;;;3556840;39;105332;-62
2021/07/18 22:24:12;;;;;;;6.75;5.97;;;;;;;;;;3555932;39;107626;-62
2021/07/18 22:26:39;;;;;;;6.88;6.18;;;;;;;;;;3556537;39;107883;-61
2021/07/18 22:29:07;;;;;;;7.32;6.47;;;;;;;;;;3556499;39;105313;-62
2021/07/18 22:31:33;;;;;;;6.82;6.00;;;;;;;;;;3556565;39;105250;-61
2021/07/18 22:34:00;;;;;;;7.78;5.70;;;;;;;;;;3556384;39;106821;-62
2021/07/18 22:36:28;;;;;;;6.95;6.00;;;;;;;;;;3556713;39;107279;-62
2021/07/18 22:39:05;;;;;;;6.55;5.93;;;;;;;;;;3556266;39;105822;-62
2021/07/18 22:41:32;;;;;;;7.22;6.53;;;;;;;;;;3556136;39;105367;-63
2021/07/18 22:43:59;;;;;;;6.15;5.55;;;;;;;;;;3556812;39;106913;-63
2021/07/18 22:46:29;;;;;;;6.65;5.88;;;;;;;;;;3556594;39;107982;-62
2021/07/18 22:48:56;;;;;;;6.35;5.75;;;;;;;;;;3557102;39;105286;-63
2021/07/18 22:51:23;;;;;;;7.22;6.18;;;;;;;;;;3556895;39;105248;-63
2021/07/18 22:53:50;;;;;;;7.47;6.10;;;;;;;;;;3556845;39;107729;-62
2021/07/18 22:56:17;;;;;;;7.32;5.68;;;;;;;;;;3556880;39;107443;-62
2021/07/18 22:58:44;;;;;;;6.47;5.88;;;;;;;;;;3557304;39;105275;-63
2021/07/18 23:01:10;;;;;;;6.53;5.93;;;;;;;;;;3556880;39;105190;-63
2021/07/18 23:03:39;;;;;;;6.50;5.78;;;;;;;;;;3556946;39;107508;-62
2021/07/18 23:06:05;;;;;;;6.68;5.88;;;;;;;;;;3556683;39;107494;-62
2021/07/18 23:08:32;;;;;;;6.50;5.78;;;;;;;;;;3557295;39;105547;-62
2021/07/18 23:10:59;;;;;;;6.78;6.03;;;;;;;;;;3556798;39;105408;-62
2021/07/18 23:13:26;;;;;;;7.20;5.68;;;;;;;;;;3556930;39;106826;-62
2021/07/18 23:15:53;;;;;;;6.15;5.55;;;;;;;;;;3556936;39;107455;-62
2021/07/18 23:18:20;;;;;;;6.30;5.65;;;;;;;;;;3556654;39;105293;-62
2021/07/18 23:20:47;;;;;;;6.43;5.70;;;;;;;;;;3550443;39;105398;-62
2021/07/18 23:23:14;;;;;;;7.50;6.32;;;;;;;;;;3549984;39;106961;-63
2021/07/18 23:25:43;;;;;;;6.93;5.80;;;;;;;;;;3549792;39;107766;-63
2021/07/18 23:28:10;;;;;;;7.10;6.10;;;;;;;;;;3550306;39;105266;-63
2021/07/18 23:30:38;;;;;;;6.57;5.80;;;;;;;;;;3550031;39;105605;-63
2021/07/18 23:33:05;;;;;;;6.95;6.10;;;;;;;;;;3550074;39;107549;-62
2021/07/18 23:35:32;;;;;;;7.35;5.40;;;;;;;;;;3549488;39;107414;-62
2021/07/18 23:37:59;;;;;;;6.70;6.00;;;;;;;;;;3549560;39;105661;-60
2021/07/18 23:40:26;;;;;;;6.75;6.15;;;;;;;;;;3550096;39;105305;-61
2021/07/18 23:42:52;;;;;;;6.60;5.95;;;;;;;;;;3549924;39;106866;-63
2021/07/18 23:45:19;;;;;;;8.15;6.07;;;;;;;;;;3550002;39;107449;-61
2021/07/18 23:47:46;;;;;;;7.50;6.78;;;;;;;;;;3550193;39;105144;-61
2021/07/18 23:50:14;;;;;;;6.88;6.25;;;;;;;;;;3550312;39;105458;-61
2021/07/18 23:52:40;;;;;;;6.88;6.18;;;;;;;;;;3549754;39;107338;-62
2021/07/18 23:55:08;;;;;;;7.00;5.97;;;;;;;;;;3549790;39;107505;-60
2021/07/18 23:57:36;;;;;;;6.88;6.18;;;;;;;;;;3549815;39;105244;-61
